Record high temperature 23.6°C Record low temperature -3.3°C Record high gust 79.4 km/h Record high average 153.6 km/h Record daily rain 37.0 mm Record low windchill -8.8°C Record high barometer 1038.4 hPa Record low barometer 980.3 hPa
Daily high pressure 1015.3 hPa Daily low pressure 1009.9 hPa Daily low windchill -2.1°C Daily high heat index 4.2°C Daily high gust speed 16.9 kmh W Daily high average speed 7.6 kmh WNW
Wetterdaten
LETZTE AKTUALISIERUNG UM: 12:00 DATUM: Januar 20 2018, time of next update: 12:15
Aktuelles Wettermostly cloudy Aktuelle Temperatur 4.2°C (39.5°F), Apparent temp 2.3°C, Apparent temp solar 4.6°C
Höchsttemperatur (seit Mitternacht)4.2°C um: 11:59 Tiefsttemperatur (seit Mitternacht)1.4°C um: 07:48
Windgeschwindigkeit (10 Minuten )4.4 kmh (2.4 kts) Windrichtung (Dir) (10 Minuten )SSE (150°)
Windchill Temperatur 3.9°C Windspitzen (letzte Std)15.2 kmh (8.2 kts) um: 11:20
Windspitzen (seit Mitternacht)16.9 kmh (9.1 kts) um: 06:21 Höchstes Windmittel / Minute (seit Mitternacht)7.6 kmh (4.1 kts) um: 06:25
Regenmenge (letzte Std)0.2 mm Regenmenge (seit Mitternacht)1.4 mm (0.06 in.) at 11:55
Regenmenge diesen Monat 53.0 mm (2.09 in.) Regenmenge seit Jahresbeginn 53.0 mm (2.09 in.)
Höchste Regenmenge pro Minute (letzte Std)0.2 mm/min Höchste Regenmenge pro Stunde (letzte 6 Std)1.2 mm/stunde
Regenmenge Gestern 4.0 mm Taupunkt 2.0°C (Wet Bulb :3.3°C )
Luftfeuchtigkeit 86 %, Humidex 2.5°C Aktueller Luftdruck (auf Meereshöhe bezogen)1009.9 hPa
Luftdrucktendenz -1.6 hPa (letzte Std) Trend (letzte 1 Std)fallend
Luftdrucktendenz (letzte 12 Std)-3.8 hPa Luftdrucktendenz (letzte 6 Std)-3.3 hPa
Maximum Soil temperature (seit Mitternacht) 4.4°C Minimum Soil temperature(seit Mitternacht)3.3°C
Current Soil temperature 4°C
Current Solar 142 W/m²
Maximum solar (seit Mitternacht) 176 W/m² Minimum solar(seit Mitternacht)0 W/m²
Current 01:24 hours of sunshine today, current sky: bewölkt
Sunshine hours for the year: 35:02 hrs Sunshine hours for the month: 35:02 hrs
Current evapotranspiration rate 0.2 mm per day. Yesterday's reading 0.4

Diese Seite wurde mit aktuellen Daten einer DAVIS VP Wetterstation erstellt. Drücken Sie bitte auf "Aktualisieren" oder "neu laden" um die neuesten Daten zu erhalten.


Animated web cam image


Weather report/warning/Metars

Stuttgart-Echterdingen, Germany (EDDS) 48-41N 009-13E 391M
Jan 20, 2018 - 05:20 AM EST / 2018.01.20 1020 UTC
Wind: from the SSW (200 degrees) at 7 MPH (6 KT) (direction variable):0
Visibility: greater than 7 mile(s):0
Sky conditions: mostly cloudy
Temperature: 37 F (3 C)
Dew Point: 33 F (1 C)
Relative Humidity: 86%
Pressure (altimeter): 29.80 in. Hg (1009 hPa)
ob: EDDS 201020Z 20006KT 170V260 9999 FEW012 SCT045 BKN120 03/01 Q1009 TEMPO BKN012
cycle: 10
Augsburg, Germany (EDMA) 48-26N 010-56E 463M
Jan 20, 2018 - 05:20 AM EST / 2018.01.20 1020 UTC
Wind: from the SW (230 degrees) at 16 MPH (14 KT):0
Visibility: greater than 7 mile(s):0
Sky conditions: mostly cloudy
Temperature: 35 F (2 C)
Windchill: 24 F (-4 C):1
Dew Point: 32 F (0 C)
Relative Humidity: 86%
Pressure (altimeter): 29.83 in. Hg (1010 hPa)
ob: EDMA 201020Z 23014KT 9999 FEW015 SCT048 BKN110 02/M00 Q1010
cycle: 10
Nuernberg, Germany (EDDN) 49-30N 011-03E 318M
Jan 20, 2018 - 05:20 AM EST / 2018.01.20 1020 UTC
Wind: from the SSW (210 degrees) at 7 MPH (6 KT):0
Visibility: greater than 7 mile(s):0
Sky conditions: mostly cloudy
Temperature: 35 F (2 C)
Windchill: 28 F (-2 C):1
Dew Point: 32 F (0 C)
Relative Humidity: 86%
Pressure (altimeter): 29.80 in. Hg (1009 hPa)
ob: EDDN 201020Z 21006KT 9999 SCT017 BKN040 02/00 Q1009 R28/29//94 NOSIG
cycle: 10
Berlin-Tegel, Germany (EDDT) 52-34N 013-19E 37M
Jan 20, 2018 - 05:20 AM EST / 2018.01.20 1020 UTC
Wind: from the SW (230 degrees) at 7 MPH (6 KT) (direction variable):0
Visibility: greater than 7 mile(s):0
Sky conditions: mostly cloudy
Temperature: 37 F (3 C)
Dew Point: 33 F (1 C)
Relative Humidity: 86%
Pressure (altimeter): 29.74 in. Hg (1007 hPa)
ob: EDDT 201020Z 23006KT 190V280 9999 FEW010 BKN021 03/01 Q1007 R88/290095 NOSIG
cycle: 10
Friedrichshafen, Germany (EDNY) 47-40N 009-31E 424M
Jan 20, 2018 - 05:20 AM EST / 2018.01.20 1020 UTC
Wind: from the SW (220 degrees) at 12 MPH (10 KT):0
Visibility: greater than 7 mile(s):0
Sky conditions: mostly cloudy
Temperature: 37 F (3 C)
Dew Point: 32 F (0 C)
Relative Humidity: 80%
Pressure (altimeter): 29.88 in. Hg (1012 hPa)
ob: EDNY 201020Z 22010KT 9999 FEW018 SCT038 BKN062 03/M00 Q1012
cycle: 10
Hamburg-Finkenwerder, Germany (EDHI) 53-32N 009-50E 13M
Jan 20, 2018 - 05:20 AM EST / 2018.01.20 1020 UTC
Wind: from the SSW (210 degrees) at 8 MPH (7 KT):0
Visibility: greater than 7 mile(s):0
Sky conditions: overcast
Temperature: 35 F (2 C)
Windchill: 28 F (-2 C):1
Dew Point: 32 F (0 C)
Relative Humidity: 86%
Pressure (altimeter): 29.65 in. Hg (1004 hPa)
ob: EDHI 201020Z 21007KT 9999 OVC009 02/00 Q1004
cycle: 10



Die Wetterdaten werden alle 2 Minuten gespeichert, aber die Datenübertragung findet jede Minute statt. Die beste Ansicht wird in einer Auflösung von 800 x 600 und "True colour" erzielt. Linie zeigt die relative Luftfeuchtigkeit an.

Drücken Sie bitte auf "Aktualisieren" in Ihrem Browser, um die aktuellsten Daten zu erhalten.

Klicken Sie hier, um eine Übersicht der Durchschnitts- u. Extremwerte für den Monat zu erhalten
Created by "Weather Display" software version 10.37S at this start time/date 17:17:31 19.01.2018